Grants Pass, Oregon
Current Conditions -  °F | °C
As of 1:56 AM on Sunday 23 Nov 2014 (Local Time) from KSXT Reporting Station
Moderate Fog Moderate Fog  
Wind Chill:   Ceiling: 100
Heat Index:   Visibility: 0.25mi
Dew Point:   Wind: 5mph
Humidity: 97%   Direction: 220°SW
Pressure: 30.31"   Gusts: NA
Location:  42.44°N, 123.32°W
Report Text: KSXT 230956Z AUTO 22004KT 1/4SM FG VV001 02/02 A3031 RMK AO2 SLP278 T00220017 $
Loading
Personal Weather Stations






























Interactive Weather Map New forecast layout! Learn more

10-Day Weather Forecast

Advertisements
Track Severe Weather on mobile